Terminal Aerodrome Forecast
Issued by NWS

Home | Current Version | Previous Version | Text Only | Print | Product List | Glossary On
Versions: 1 2 3 4 5 6 7 8 9 10 11 12
000
FTUS44 KOUN 282320
TAFHBR
TAF
KHBR 282320Z 2900/2924 08011KT P6SM SCT050 BKN150
     FM290600 02017G26KT 3SM +TSRA OVC020CB
     FM290800 02018G26KT P6SM VCSH BKN020
     FM291600 36019G28KT 5SM BR OVC008 PROB30 2916/2919 4SM -RA BR=

USA.gov is the U.S. government's official web portal to all federal, state and local government web resources and services.